createdAt,value
2022-12-07T08:28:26.753Z,83.40
2022-12-07T08:31:01.206Z,83.60
2022-12-07T08:33:28.918Z,83.50
2022-12-07T08:36:02.029Z,82.50
2022-12-07T08:38:31.899Z,82.20
2022-12-07T08:41:00.648Z,82.90
2022-12-07T08:43:28.432Z,81.80
2022-12-07T08:46:39.316Z,82.30
2022-12-07T08:49:33.698Z,82.30
2022-12-07T08:52:01.184Z,82.20
2022-12-07T08:54:29.998Z,82.60
2022-12-07T08:56:59.763Z,82.60
2022-12-07T08:59:29.265Z,83.40
2022-12-07T09:01:56.815Z,83.40
2022-12-07T09:04:24.247Z,82.70
2022-12-07T09:06:51.974Z,83.10
2022-12-07T09:09:19.414Z,82.20
2022-12-07T09:11:57.948Z,82.40
2022-12-07T09:14:26.151Z,82.40
2022-12-07T09:16:53.496Z,82.70
2022-12-07T09:19:21.075Z,81.30
2022-12-07T09:21:48.509Z,81.40
2022-12-07T09:24:15.954Z,81.20
2022-12-07T09:26:43.326Z,81.70
2022-12-07T09:29:10.681Z,81.00
2022-12-07T09:31:39.483Z,81.10
2022-12-07T09:34:07.320Z,80.70
2022-12-07T09:36:35.637Z,80.30
2022-12-07T09:39:05.611Z,80.30
2022-12-07T09:41:34.060Z,80.10
2022-12-07T09:44:18.113Z,80.10
2022-12-07T09:46:47.094Z,80.80
2022-12-07T09:49:23.175Z,80.30
2022-12-07T09:52:13.805Z,80.20
2022-12-07T09:54:51.675Z,79.90
2022-12-07T09:57:33.086Z,80.30
2022-12-07T10:00:16.541Z,80.40
2022-12-07T10:02:58.286Z,79.40
2022-12-07T10:05:45.797Z,79.50
2022-12-07T10:08:14.977Z,78.30
2022-12-07T10:10:42.968Z,79.40
2022-12-07T10:13:22.541Z,78.50
2022-12-07T10:16:05.185Z,77.90
2022-12-07T10:18:45.430Z,78.10
2022-12-07T10:21:25.163Z,78.70
2022-12-07T10:24:11.358Z,78.10
2022-12-07T10:26:54.670Z,76.40
2022-12-07T10:29:40.394Z,76.30
2022-12-07T10:32:36.301Z,77.20
2022-12-07T10:35:30.281Z,76.60
2022-12-07T10:38:01.041Z,76.80
2022-12-07T10:40:38.748Z,77.30
2022-12-07T10:43:20.702Z,77.40
2022-12-07T10:47:00.679Z,77.60
2022-12-07T10:49:50.214Z,77.30
2022-12-07T10:53:16.586Z,77.00
2022-12-07T10:56:56.978Z,77.00
2022-12-07T11:00:04.002Z,78.00
2022-12-07T11:04:25.574Z,78.20
2022-12-07T11:07:23.215Z,76.60
2022-12-07T11:10:19.414Z,75.90
2022-12-07T11:14:26.333Z,77.50
2022-12-07T11:18:20.044Z,75.70
2022-12-07T11:21:43.743Z,74.30
2022-12-07T11:24:49.844Z,75.10
2022-12-07T11:27:47.665Z,72.70
2022-12-07T11:30:26.170Z,73.10
2022-12-07T11:33:26.976Z,71.70
2022-12-07T11:36:37.742Z,72.20
2022-12-07T11:39:43.487Z,71.20
2022-12-07T11:42:38.031Z,69.20
2022-12-07T11:45:27.956Z,69.20
2022-12-07T11:48:23.610Z,69.50
2022-12-07T11:50:58.171Z,67.60
2022-12-07T11:53:50.490Z,67.40
2022-12-07T11:56:23.827Z,68.50
2022-12-07T11:59:21.918Z,67.20
2022-12-07T12:02:32.846Z,67.30
2022-12-07T12:05:24.976Z,66.90
2022-12-07T12:16:22.185Z,63.10
2022-12-07T12:19:23.659Z,63.90
2022-12-07T12:22:18.403Z,64.70
2022-12-07T12:24:53.134Z,65.00
2022-12-07T12:27:37.205Z,65.70
2022-12-07T12:30:39.078Z,65.40
2022-12-07T12:33:32.053Z,65.10
2022-12-07T12:36:22.185Z,63.50
2022-12-07T12:38:59.899Z,62.00
2022-12-07T12:41:39.126Z,64.00
2022-12-07T12:44:19.538Z,63.60
2022-12-07T12:46:59.427Z,63.80
2022-12-07T12:49:26.542Z,63.40
2022-12-07T12:52:39.775Z,63.90
2022-12-07T12:55:10.032Z,64.70
2022-12-07T12:57:38.421Z,64.90
2022-12-07T13:00:23.333Z,65.80
2022-12-07T13:02:57.526Z,64.70
2022-12-07T13:05:32.205Z,65.40
2022-12-07T13:08:27.050Z,65.20
2022-12-07T13:11:40.705Z,64.30
2022-12-07T13:14:41.713Z,64.70
2022-12-07T13:17:33.828Z,63.70
2022-12-07T13:20:12.776Z,63.90
2022-12-07T13:22:50.340Z,64.90
2022-12-07T13:25:37.388Z,63.80
2022-12-07T13:28:22.730Z,64.30
2022-12-07T13:31:34.697Z,65.00
2022-12-07T13:34:33.670Z,65.20
2022-12-07T13:37:36.710Z,65.40
2022-12-07T13:40:23.859Z,63.70
2022-12-07T13:43:13.818Z,64.50
2022-12-07T13:45:52.550Z,64.30
2022-12-07T13:48:48.844Z,65.20
2022-12-07T13:51:35.069Z,65.70
2022-12-07T13:54:12.691Z,65.60
2022-12-07T13:56:41.027Z,66.20
2022-12-07T13:59:26.194Z,65.00
2022-12-07T14:01:54.911Z,65.00
2022-12-07T14:04:39.278Z,66.10
2022-12-07T14:07:28.841Z,65.70
2022-12-07T14:10:49.402Z,66.20
2022-12-07T14:13:51.035Z,64.30
2022-12-07T14:16:38.052Z,64.20
2022-12-07T14:19:48.679Z,65.60
2022-12-07T14:22:39.235Z,65.60
2022-12-07T14:25:19.179Z,64.50
2022-12-07T14:27:59.346Z,64.10
2022-12-07T14:30:35.254Z,65.10
2022-12-07T14:33:06.648Z,64.50
2022-12-07T14:35:34.380Z,64.20
2022-12-07T14:38:01.715Z,65.20
2022-12-07T14:40:31.163Z,63.60
2022-12-07T14:43:13.997Z,64.30
2022-12-07T14:45:42.685Z,64.20
2022-12-07T14:53:57.305Z,63.60
2022-12-07T14:56:26.607Z,63.40
2022-12-07T14:58:53.971Z,64.40
2022-12-07T15:01:21.442Z,63.70
2022-12-07T15:03:48.925Z,64.00
2022-12-07T15:06:19.822Z,63.80
2022-12-07T15:08:47.737Z,64.20
2022-12-07T15:11:18.216Z,64.20
2022-12-07T15:14:04.201Z,64.60
2022-12-07T15:16:52.566Z,64.70
2022-12-07T15:19:28.960Z,63.30
2022-12-07T15:22:01.062Z,63.20
2022-12-07T15:24:28.711Z,63.40
2022-12-07T15:26:56.085Z,64.30
2022-12-07T15:29:24.147Z,64.90
2022-12-07T15:31:57.050Z,64.70
2022-12-07T15:34:33.487Z,63.50
2022-12-07T15:37:05.732Z,63.30
2022-12-07T15:39:33.376Z,64.50
2022-12-07T15:42:00.780Z,64.10
2022-12-07T15:44:46.617Z,65.60
2022-12-07T15:47:14.047Z,64.90
2022-12-07T15:49:41.753Z,64.80
2022-12-07T15:52:09.159Z,64.90
2022-12-07T15:54:36.532Z,64.90
2022-12-07T15:57:04.063Z,65.00
2022-12-07T15:59:31.587Z,65.00
2022-12-07T16:01:59.960Z,65.20
2022-12-07T16:04:30.534Z,64.70
2022-12-07T16:06:58.507Z,64.70
2022-12-07T16:09:26.393Z,65.10
2022-12-07T16:11:53.876Z,64.50
2022-12-07T16:14:21.682Z,64.50
2022-12-07T16:16:49.883Z,65.00
2022-12-07T16:19:17.245Z,64.40
2022-12-07T16:21:44.861Z,65.20
2022-12-07T16:24:13.668Z,64.80
2022-12-07T16:26:46.296Z,65.20
2022-12-07T16:29:20.037Z,65.60
2022-12-07T16:31:49.397Z,66.20
2022-12-07T16:34:16.953Z,66.60
2022-12-07T16:39:34.324Z,66.40
2022-12-07T16:42:02.135Z,65.60
2022-12-07T16:44:29.634Z,66.00
2022-12-07T16:46:57.194Z,65.70
2022-12-07T16:49:25.202Z,65.50
2022-12-07T16:52:14.791Z,66.10
2022-12-07T16:54:40.871Z,67.20
2022-12-07T16:57:08.255Z,67.70
2022-12-07T16:59:35.634Z,67.60
2022-12-07T17:02:03.207Z,68.80
2022-12-07T17:04:31.011Z,69.10
2022-12-07T17:06:59.426Z,69.50
2022-12-07T17:09:27.120Z,69.90
2022-12-07T17:11:54.457Z,69.50
2022-12-07T17:14:40.332Z,68.80
2022-12-07T17:17:07.778Z,68.80
2022-12-07T17:19:35.248Z,68.40
2022-12-07T17:22:02.674Z,68.70
2022-12-07T17:24:30.157Z,68.90
2022-12-07T17:26:57.512Z,69.80
2022-12-07T17:29:24.891Z,70.10
2022-12-07T17:31:52.373Z,69.90
2022-12-07T17:34:19.974Z,70.40
2022-12-07T17:36:47.995Z,71.10
2022-12-07T17:39:19.510Z,71.80
2022-12-07T17:42:06.786Z,71.80
2022-12-07T17:44:34.222Z,71.30
2022-12-07T17:47:03.924Z,71.70
2022-12-07T17:49:31.901Z,72.40
2022-12-07T17:52:17.734Z,71.90
2022-12-07T17:54:45.198Z,71.60
2022-12-07T17:57:12.647Z,71.20
2022-12-07T17:59:40.067Z,72.50
2022-12-07T18:02:08.796Z,71.60
2022-12-07T18:04:36.213Z,71.80
2022-12-07T18:07:06.730Z,72.50
2022-12-07T18:09:34.066Z,72.70
2022-12-07T18:12:02.600Z,73.20
2022-12-07T18:14:30.038Z,73.30
2022-12-07T18:16:57.517Z,73.10
2022-12-07T18:19:25.122Z,72.70
2022-12-07T18:21:52.507Z,73.20
2022-12-07T18:24:20.002Z,73.40
2022-12-07T18:26:48.235Z,73.20
2022-12-07T18:29:18.578Z,72.70
2022-12-07T18:31:47.724Z,72.90
2022-12-07T18:34:19.038Z,73.10
2022-12-07T18:36:53.206Z,72.90
2022-12-07T18:39:20.917Z,73.10
2022-12-07T18:41:49.043Z,72.60
2022-12-07T18:44:18.614Z,72.90
2022-12-07T18:46:46.462Z,73.80
2022-12-07T18:49:15.670Z,73.50
2022-12-07T18:51:45.248Z,74.20
2022-12-07T18:54:12.678Z,74.50
2022-12-07T18:56:40.180Z,74.20
2022-12-07T18:59:26.774Z,73.70
2022-12-07T19:01:55.267Z,73.70
2022-12-07T19:04:23.322Z,73.80
2022-12-07T19:06:51.621Z,74.00
2022-12-07T19:09:20.044Z,74.20
2022-12-07T19:11:51.173Z,74.70
2022-12-07T19:14:23.966Z,74.50
2022-12-07T19:16:59.440Z,74.60
2022-12-07T19:19:40.059Z,74.50
2022-12-07T19:22:13.117Z,74.80
2022-12-07T19:24:40.877Z,75.30
2022-12-07T19:27:09.357Z,75.70
2022-12-07T19:29:36.710Z,75.30
2022-12-07T19:32:08.704Z,75.00
2022-12-07T19:34:43.365Z,75.10
2022-12-07T19:37:12.896Z,75.00
2022-12-07T19:39:43.789Z,74.40
2022-12-07T19:42:12.397Z,74.40
2022-12-07T19:44:39.842Z,74.50
2022-12-07T19:47:07.326Z,74.40
2022-12-07T19:49:36.708Z,73.90
2022-12-07T19:52:09.246Z,73.80
2022-12-07T19:54:37.476Z,74.10
2022-12-07T19:57:07.573Z,73.90
2022-12-07T19:59:35.395Z,74.10
2022-12-07T20:02:02.860Z,73.60
2022-12-07T20:04:35.613Z,74.30
2022-12-07T20:07:03.615Z,74.40
2022-12-07T20:09:31.047Z,74.50
2022-12-07T20:12:17.072Z,75.00
2022-12-07T20:14:44.386Z,75.40
2022-12-07T20:17:11.874Z,74.90
2022-12-07T20:19:40.464Z,75.30
2022-12-07T20:22:08.839Z,75.10
2022-12-07T20:24:36.535Z,74.30
2022-12-07T20:27:05.259Z,74.60
2022-12-07T20:29:32.904Z,74.60
2022-12-07T20:32:00.375Z,74.90
2022-12-07T20:34:27.802Z,75.20
2022-12-07T20:36:56.032Z,75.80
2022-12-07T20:39:24.210Z,75.30
2022-12-07T20:42:10.463Z,75.00
2022-12-07T20:44:38.217Z,75.10
2022-12-07T20:47:07.034Z,75.30
2022-12-07T20:49:34.835Z,75.40
2022-12-07T20:52:02.766Z,75.10
2022-12-07T20:54:30.282Z,75.60
2022-12-07T20:56:57.746Z,75.70
2022-12-07T20:59:25.195Z,75.80
2022-12-07T21:01:53.349Z,75.90
2022-12-07T21:04:20.853Z,76.30
2022-12-07T21:06:48.384Z,75.70
2022-12-07T21:09:15.700Z,75.40
2022-12-07T21:11:43.095Z,76.20
2022-12-07T21:14:10.572Z,76.10
2022-12-07T21:16:38.004Z,75.70
2022-12-07T21:19:06.070Z,76.00
2022-12-07T21:21:34.781Z,75.80
2022-12-07T21:24:05.221Z,76.00
2022-12-07T21:26:36.118Z,76.20
2022-12-07T21:29:07.270Z,76.30
2022-12-07T21:31:35.668Z,76.60
2022-12-07T21:34:08.101Z,76.60
2022-12-07T21:36:36.425Z,76.10
2022-12-07T21:39:05.310Z,76.70
2022-12-07T21:41:35.844Z,76.50
2022-12-07T21:44:07.025Z,76.60
2022-12-07T21:46:35.072Z,76.80
2022-12-07T21:49:10.989Z,76.20
2022-12-07T21:51:40.738Z,76.00
2022-12-07T21:54:08.843Z,76.40
2022-12-07T21:56:42.112Z,76.40
2022-12-07T21:59:15.855Z,76.70
2022-12-07T22:01:47.443Z,77.40
2022-12-07T22:04:20.824Z,77.10
2022-12-07T22:06:49.372Z,77.70
2022-12-07T22:09:18.953Z,77.90
2022-12-07T22:11:47.081Z,78.10
2022-12-07T22:14:32.915Z,77.90
2022-12-07T22:17:00.418Z,78.30
2022-12-07T22:19:27.967Z,77.90
2022-12-07T22:21:55.387Z,77.90
2022-12-07T22:24:22.809Z,78.80
2022-12-07T22:26:50.102Z,78.20
2022-12-07T22:29:17.654Z,78.00
2022-12-07T22:31:47.930Z,78.30
2022-12-07T22:34:19.562Z,78.00
2022-12-07T22:36:46.954Z,77.80
2022-12-07T22:39:14.464Z,77.60
